sensor_id;sensor_type;location;lat;lon;timestamp;P1;durP1;ratioP1;P2;durP2;ratioP2
42066;SDS011;27734;47.028;28.820;2023-08-31T00:02:22;15.73;;;6.30;;
42066;SDS011;27734;47.028;28.820;2023-08-31T00:04:54;14.97;;;6.97;;
42066;SDS011;27734;47.028;28.820;2023-08-31T00:07:26;12.70;;;6.33;;
42066;SDS011;27734;47.028;28.820;2023-08-31T00:09:57;17.00;;;7.07;;
42066;SDS011;27734;47.028;28.820;2023-08-31T00:12:34;18.43;;;6.80;;
42066;SDS011;27734;47.028;28.820;2023-08-31T00:15:06;15.35;;;6.70;;
42066;SDS011;27734;47.028;28.820;2023-08-31T00:17:38;15.45;;;6.15;;
42066;SDS011;27734;47.028;28.820;2023-08-31T00:20:11;17.10;;;6.27;;
42066;SDS011;27734;47.028;28.820;2023-08-31T00:22:42;14.97;;;6.50;;
42066;SDS011;27734;47.028;28.820;2023-08-31T00:25:13;15.87;;;7.27;;
42066;SDS011;27734;47.028;28.820;2023-08-31T00:27:45;16.17;;;7.13;;
42066;SDS011;27734;47.028;28.820;2023-08-31T00:30:16;14.70;;;7.20;;
42066;SDS011;27734;47.028;28.820;2023-08-31T00:32:48;17.40;;;7.70;;
42066;SDS011;27734;47.028;28.820;2023-08-31T00:35:22;17.37;;;6.73;;
42066;SDS011;27734;47.028;28.820;2023-08-31T00:37:55;14.50;;;6.77;;
42066;SDS011;27734;47.028;28.820;2023-08-31T00:40:27;16.57;;;7.03;;
42066;SDS011;27734;47.028;28.820;2023-08-31T00:42:59;14.90;;;6.87;;
42066;SDS011;27734;47.028;28.820;2023-08-31T00:45:31;16.13;;;6.90;;
42066;SDS011;27734;47.028;28.820;2023-08-31T00:48:04;17.03;;;6.87;;
42066;SDS011;27734;47.028;28.820;2023-08-31T00:50:36;18.53;;;7.17;;
42066;SDS011;27734;47.028;28.820;2023-08-31T00:53:07;17.23;;;7.67;;
42066;SDS011;27734;47.028;28.820;2023-08-31T00:55:39;15.93;;;7.20;;
42066;SDS011;27734;47.028;28.820;2023-08-31T00:58:11;16.03;;;7.20;;
42066;SDS011;27734;47.028;28.820;2023-08-31T01:00:46;16.27;;;7.20;;
42066;SDS011;27734;47.028;28.820;2023-08-31T01:03:26;18.40;;;7.90;;
42066;SDS011;27734;47.028;28.820;2023-08-31T01:06:09;16.70;;;7.10;;
42066;SDS011;27734;47.028;28.820;2023-08-31T01:08:50;20.43;;;8.43;;
42066;SDS011;27734;47.028;28.820;2023-08-31T01:11:29;19.13;;;8.03;;
42066;SDS011;27734;47.028;28.820;2023-08-31T01:14:07;19.40;;;8.47;;
42066;SDS011;27734;47.028;28.820;2023-08-31T01:16:41;18.13;;;8.13;;
42066;SDS011;27734;47.028;28.820;2023-08-31T01:19:16;19.83;;;8.27;;
42066;SDS011;27734;47.028;28.820;2023-08-31T01:21:59;19.05;;;8.13;;
42066;SDS011;27734;47.028;28.820;2023-08-31T01:24:34;19.33;;;8.90;;
42066;SDS011;27734;47.028;28.820;2023-08-31T01:27:07;18.23;;;9.15;;
42066;SDS011;27734;47.028;28.820;2023-08-31T01:29:39;19.93;;;8.57;;
42066;SDS011;27734;47.028;28.820;2023-08-31T01:32:10;19.60;;;8.73;;
42066;SDS011;27734;47.028;28.820;2023-08-31T01:34:42;22.65;;;8.55;;
42066;SDS011;27734;47.028;28.820;2023-08-31T01:37:15;18.83;;;7.83;;
42066;SDS011;27734;47.028;28.820;2023-08-31T01:39:52;16.63;;;8.27;;
42066;SDS011;27734;47.028;28.820;2023-08-31T01:42:32;22.10;;;9.07;;
42066;SDS011;27734;47.028;28.820;2023-08-31T01:45:05;17.43;;;8.03;;
42066;SDS011;27734;47.028;28.820;2023-08-31T01:47:40;23.10;;;8.10;;
42066;SDS011;27734;47.028;28.820;2023-08-31T01:50:13;16.80;;;8.53;;
42066;SDS011;27734;47.028;28.820;2023-08-31T01:52:45;19.70;;;7.80;;
42066;SDS011;27734;47.028;28.820;2023-08-31T01:55:16;19.80;;;9.10;;
42066;SDS011;27734;47.028;28.820;2023-08-31T01:57:50;21.73;;;8.60;;
42066;SDS011;27734;47.028;28.820;2023-08-31T02:00:25;24.50;;;9.43;;
42066;SDS011;27734;47.028;28.820;2023-08-31T02:02:58;20.62;;;8.80;;
42066;SDS011;27734;47.028;28.820;2023-08-31T02:05:29;18.50;;;8.27;;
42066;SDS011;27734;47.028;28.820;2023-08-31T02:08:01;19.53;;;8.47;;
42066;SDS011;27734;47.028;28.820;2023-08-31T02:10:32;18.13;;;7.93;;
42066;SDS011;27734;47.028;28.820;2023-08-31T02:13:03;21.90;;;7.93;;
42066;SDS011;27734;47.028;28.820;2023-08-31T02:15:37;24.63;;;9.03;;
42066;SDS011;27734;47.028;28.820;2023-08-31T02:18:08;19.62;;;8.50;;
42066;SDS011;27734;47.028;28.820;2023-08-31T02:20:39;18.77;;;8.47;;
42066;SDS011;27734;47.028;28.820;2023-08-31T02:23:11;20.40;;;8.87;;
42066;SDS011;27734;47.028;28.820;2023-08-31T02:25:42;18.50;;;7.87;;
42066;SDS011;27734;47.028;28.820;2023-08-31T02:28:14;20.47;;;8.87;;
42066;SDS011;27734;47.028;28.820;2023-08-31T02:30:46;16.33;;;7.90;;
42066;SDS011;27734;47.028;28.820;2023-08-31T02:33:26;23.30;;;9.23;;
42066;SDS011;27734;47.028;28.820;2023-08-31T02:35:58;18.00;;;8.50;;
42066;SDS011;27734;47.028;28.820;2023-08-31T02:38:29;21.03;;;8.67;;
42066;SDS011;27734;47.028;28.820;2023-08-31T02:41:00;20.20;;;8.10;;
42066;SDS011;27734;47.028;28.820;2023-08-31T02:43:31;18.87;;;8.00;;
42066;SDS011;27734;47.028;28.820;2023-08-31T02:46:03;21.17;;;8.13;;
42066;SDS011;27734;47.028;28.820;2023-08-31T02:48:34;19.30;;;7.80;;
42066;SDS011;27734;47.028;28.820;2023-08-31T02:51:06;23.93;;;9.73;;
42066;SDS011;27734;47.028;28.820;2023-08-31T02:53:38;22.90;;;8.67;;
42066;SDS011;27734;47.028;28.820;2023-08-31T02:56:09;22.60;;;8.80;;
42066;SDS011;27734;47.028;28.820;2023-08-31T02:58:41;22.67;;;8.97;;
42066;SDS011;27734;47.028;28.820;2023-08-31T03:01:13;21.87;;;8.50;;
42066;SDS011;27734;47.028;28.820;2023-08-31T03:03:48;20.93;;;8.93;;
42066;SDS011;27734;47.028;28.820;2023-08-31T03:06:19;21.97;;;8.97;;
42066;SDS011;27734;47.028;28.820;2023-08-31T03:08:50;26.20;;;9.73;;
42066;SDS011;27734;47.028;28.820;2023-08-31T03:11:22;21.47;;;8.97;;
42066;SDS011;27734;47.028;28.820;2023-08-31T03:13:53;21.53;;;8.97;;
42066;SDS011;27734;47.028;28.820;2023-08-31T03:16:25;23.13;;;10.10;;
42066;SDS011;27734;47.028;28.820;2023-08-31T03:18:56;21.93;;;10.40;;
42066;SDS011;27734;47.028;28.820;2023-08-31T03:21:27;25.13;;;10.40;;
42066;SDS011;27734;47.028;28.820;2023-08-31T03:23:59;24.50;;;10.45;;
42066;SDS011;27734;47.028;28.820;2023-08-31T03:26:30;25.40;;;11.67;;
42066;SDS011;27734;47.028;28.820;2023-08-31T03:29:02;27.47;;;11.20;;
42066;SDS011;27734;47.028;28.820;2023-08-31T03:31:33;26.13;;;10.73;;
42066;SDS011;27734;47.028;28.820;2023-08-31T03:34:06;23.80;;;10.50;;
42066;SDS011;27734;47.028;28.820;2023-08-31T03:36:38;24.50;;;10.80;;
42066;SDS011;27734;47.028;28.820;2023-08-31T03:39:10;23.37;;;10.13;;
42066;SDS011;27734;47.028;28.820;2023-08-31T03:41:41;25.33;;;10.57;;
42066;SDS011;27734;47.028;28.820;2023-08-31T03:44:12;23.23;;;10.07;;
42066;SDS011;27734;47.028;28.820;2023-08-31T03:46:44;22.10;;;10.37;;
42066;SDS011;27734;47.028;28.820;2023-08-31T03:49:16;23.90;;;10.70;;
42066;SDS011;27734;47.028;28.820;2023-08-31T03:51:47;27.10;;;10.97;;
42066;SDS011;27734;47.028;28.820;2023-08-31T03:54:19;24.43;;;10.73;;
42066;SDS011;27734;47.028;28.820;2023-08-31T03:56:51;25.97;;;10.17;;
42066;SDS011;27734;47.028;28.820;2023-08-31T03:59:22;24.30;;;10.97;;
42066;SDS011;27734;47.028;28.820;2023-08-31T04:01:54;24.53;;;10.23;;
42066;SDS011;27734;47.028;28.820;2023-08-31T04:04:25;24.33;;;10.90;;
42066;SDS011;27734;47.028;28.820;2023-08-31T04:06:57;24.17;;;10.57;;
42066;SDS011;27734;47.028;28.820;2023-08-31T04:09:28;21.10;;;10.07;;
42066;SDS011;27734;47.028;28.820;2023-08-31T04:12:01;23.00;;;9.97;;
42066;SDS011;27734;47.028;28.820;2023-08-31T04:14:33;22.13;;;10.40;;
42066;SDS011;27734;47.028;28.820;2023-08-31T04:17:04;22.57;;;10.13;;
42066;SDS011;27734;47.028;28.820;2023-08-31T04:19:36;23.17;;;9.73;;
42066;SDS011;27734;47.028;28.820;2023-08-31T04:22:07;27.07;;;8.90;;
42066;SDS011;27734;47.028;28.820;2023-08-31T04:24:38;21.90;;;9.13;;
42066;SDS011;27734;47.028;28.820;2023-08-31T04:27:10;20.27;;;10.33;;
42066;SDS011;27734;47.028;28.820;2023-08-31T04:29:41;19.03;;;8.90;;
42066;SDS011;27734;47.028;28.820;2023-08-31T04:32:12;24.83;;;10.97;;
42066;SDS011;27734;47.028;28.820;2023-08-31T04:34:44;22.37;;;10.40;;
42066;SDS011;27734;47.028;28.820;2023-08-31T04:37:15;25.13;;;9.50;;
42066;SDS011;27734;47.028;28.820;2023-08-31T04:39:46;38.30;;;14.97;;
42066;SDS011;27734;47.028;28.820;2023-08-31T04:42:18;32.23;;;14.77;;
42066;SDS011;27734;47.028;28.820;2023-08-31T04:44:49;35.35;;;15.15;;
42066;SDS011;27734;47.028;28.820;2023-08-31T04:47:21;31.47;;;13.40;;
42066;SDS011;27734;47.028;28.820;2023-08-31T04:49:52;31.17;;;14.20;;
42066;SDS011;27734;47.028;28.820;2023-08-31T04:52:24;27.50;;;13.67;;
42066;SDS011;27734;47.028;28.820;2023-08-31T04:54:55;32.73;;;13.47;;
42066;SDS011;27734;47.028;28.820;2023-08-31T04:57:27;31.33;;;13.97;;
42066;SDS011;27734;47.028;28.820;2023-08-31T04:59:58;30.00;;;13.10;;
42066;SDS011;27734;47.028;28.820;2023-08-31T05:02:31;30.48;;;12.88;;
42066;SDS011;27734;47.028;28.820;2023-08-31T05:05:03;26.10;;;12.60;;
42066;SDS011;27734;47.028;28.820;2023-08-31T05:07:35;26.50;;;12.53;;
42066;SDS011;27734;47.028;28.820;2023-08-31T05:10:08;27.75;;;11.40;;
42066;SDS011;27734;47.028;28.820;2023-08-31T05:12:40;31.87;;;12.68;;
42066;SDS011;27734;47.028;28.820;2023-08-31T05:15:11;27.23;;;11.93;;
42066;SDS011;27734;47.028;28.820;2023-08-31T05:17:42;26.07;;;11.40;;
42066;SDS011;27734;47.028;28.820;2023-08-31T05:20:13;21.13;;;10.77;;
42066;SDS011;27734;47.028;28.820;2023-08-31T05:22:45;27.17;;;11.67;;
42066;SDS011;27734;47.028;28.820;2023-08-31T05:25:16;27.70;;;11.60;;
42066;SDS011;27734;47.028;28.820;2023-08-31T05:27:48;27.87;;;11.53;;
42066;SDS011;27734;47.028;28.820;2023-08-31T05:30:19;31.57;;;11.13;;
42066;SDS011;27734;47.028;28.820;2023-08-31T05:32:50;26.03;;;11.70;;
42066;SDS011;27734;47.028;28.820;2023-08-31T05:35:22;24.40;;;11.53;;
42066;SDS011;27734;47.028;28.820;2023-08-31T05:37:53;26.17;;;12.33;;
42066;SDS011;27734;47.028;28.820;2023-08-31T05:40:24;23.63;;;11.87;;
42066;SDS011;27734;47.028;28.820;2023-08-31T05:42:56;29.45;;;12.60;;
42066;SDS011;27734;47.028;28.820;2023-08-31T05:45:27;27.20;;;12.67;;
42066;SDS011;27734;47.028;28.820;2023-08-31T05:48:00;26.95;;;11.55;;
42066;SDS011;27734;47.028;28.820;2023-08-31T05:50:32;26.97;;;12.13;;
42066;SDS011;27734;47.028;28.820;2023-08-31T05:53:05;26.87;;;12.77;;
42066;SDS011;27734;47.028;28.820;2023-08-31T05:55:37;32.90;;;11.77;;
42066;SDS011;27734;47.028;28.820;2023-08-31T05:58:08;26.37;;;12.03;;
42066;SDS011;27734;47.028;28.820;2023-08-31T06:00:39;23.30;;;11.23;;
42066;SDS011;27734;47.028;28.820;2023-08-31T06:03:11;28.60;;;12.00;;
42066;SDS011;27734;47.028;28.820;2023-08-31T06:05:42;25.90;;;11.17;;
42066;SDS011;27734;47.028;28.820;2023-08-31T06:08:14;25.57;;;10.93;;
42066;SDS011;27734;47.028;28.820;2023-08-31T06:10:45;21.80;;;9.60;;
42066;SDS011;27734;47.028;28.820;2023-08-31T06:13:17;23.60;;;9.77;;
42066;SDS011;27734;47.028;28.820;2023-08-31T06:15:48;23.17;;;9.83;;
42066;SDS011;27734;47.028;28.820;2023-08-31T06:18:20;24.40;;;9.00;;
42066;SDS011;27734;47.028;28.820;2023-08-31T06:20:51;18.53;;;8.30;;
42066;SDS011;27734;47.028;28.820;2023-08-31T06:25:54;15.53;;;7.23;;
42066;SDS011;27734;47.028;28.820;2023-08-31T06:28:27;18.23;;;7.67;;
42066;SDS011;27734;47.028;28.820;2023-08-31T06:30:59;20.23;;;7.73;;
42066;SDS011;27734;47.028;28.820;2023-08-31T06:33:31;19.45;;;7.25;;
42066;SDS011;27734;47.028;28.820;2023-08-31T06:36:02;16.83;;;7.10;;
42066;SDS011;27734;47.028;28.820;2023-08-31T06:38:34;17.63;;;6.80;;
42066;SDS011;27734;47.028;28.820;2023-08-31T06:41:05;17.97;;;7.30;;
42066;SDS011;27734;47.028;28.820;2023-08-31T06:43:37;17.83;;;7.90;;
42066;SDS011;27734;47.028;28.820;2023-08-31T06:46:08;19.40;;;8.73;;
42066;SDS011;27734;47.028;28.820;2023-08-31T06:48:39;19.00;;;7.90;;
42066;SDS011;27734;47.028;28.820;2023-08-31T06:51:11;20.93;;;8.83;;
42066;SDS011;27734;47.028;28.820;2023-08-31T06:53:43;17.83;;;8.37;;
42066;SDS011;27734;47.028;28.820;2023-08-31T06:56:16;22.60;;;8.90;;
42066;SDS011;27734;47.028;28.820;2023-08-31T06:58:47;20.20;;;8.50;;
42066;SDS011;27734;47.028;28.820;2023-08-31T07:01:19;27.07;;;8.50;;
42066;SDS011;27734;47.028;28.820;2023-08-31T07:03:50;20.00;;;7.80;;
42066;SDS011;27734;47.028;28.820;2023-08-31T07:06:21;20.83;;;7.83;;
42066;SDS011;27734;47.028;28.820;2023-08-31T07:08:53;19.87;;;7.73;;
42066;SDS011;27734;47.028;28.820;2023-08-31T07:11:24;16.40;;;7.40;;
42066;SDS011;27734;47.028;28.820;2023-08-31T07:13:56;21.50;;;8.90;;
42066;SDS011;27734;47.028;28.820;2023-08-31T07:16:27;23.17;;;8.20;;
42066;SDS011;27734;47.028;28.820;2023-08-31T07:18:58;19.73;;;8.13;;
42066;SDS011;27734;47.028;28.820;2023-08-31T07:21:30;19.37;;;8.13;;
42066;SDS011;27734;47.028;28.820;2023-08-31T07:24:02;21.00;;;8.40;;
42066;SDS011;27734;47.028;28.820;2023-08-31T07:26:34;23.47;;;9.17;;
42066;SDS011;27734;47.028;28.820;2023-08-31T07:29:06;19.37;;;8.57;;
42066;SDS011;27734;47.028;28.820;2023-08-31T07:31:39;13.75;;;7.05;;
42066;SDS011;27734;47.028;28.820;2023-08-31T07:34:10;17.23;;;7.30;;
42066;SDS011;27734;47.028;28.820;2023-08-31T07:36:42;12.30;;;5.80;;
42066;SDS011;27734;47.028;28.820;2023-08-31T07:39:13;15.27;;;6.20;;
42066;SDS011;27734;47.028;28.820;2023-08-31T07:41:45;13.00;;;6.37;;
42066;SDS011;27734;47.028;28.820;2023-08-31T07:44:17;12.73;;;6.13;;
42066;SDS011;27734;47.028;28.820;2023-08-31T07:46:48;15.10;;;6.03;;
42066;SDS011;27734;47.028;28.820;2023-08-31T07:49:20;16.23;;;6.57;;
42066;SDS011;27734;47.028;28.820;2023-08-31T07:51:51;15.23;;;6.10;;
42066;SDS011;27734;47.028;28.820;2023-08-31T07:54:22;15.20;;;6.00;;
42066;SDS011;27734;47.028;28.820;2023-08-31T07:56:54;13.73;;;6.20;;
42066;SDS011;27734;47.028;28.820;2023-08-31T07:59:25;11.80;;;5.87;;
42066;SDS011;27734;47.028;28.820;2023-08-31T08:01:56;13.77;;;5.90;;
42066;SDS011;27734;47.028;28.820;2023-08-31T08:04:28;12.87;;;5.97;;
42066;SDS011;27734;47.028;28.820;2023-08-31T08:06:59;14.87;;;5.57;;
42066;SDS011;27734;47.028;28.820;2023-08-31T08:09:31;13.35;;;5.70;;
42066;SDS011;27734;47.028;28.820;2023-08-31T08:12:03;13.83;;;5.77;;
42066;SDS011;27734;47.028;28.820;2023-08-31T08:14:36;12.85;;;6.03;;
42066;SDS011;27734;47.028;28.820;2023-08-31T08:17:07;12.60;;;5.50;;
42066;SDS011;27734;47.028;28.820;2023-08-31T08:19:38;12.67;;;5.43;;
42066;SDS011;27734;47.028;28.820;2023-08-31T08:22:10;9.87;;;5.50;;
42066;SDS011;27734;47.028;28.820;2023-08-31T08:24:41;9.43;;;5.47;;
42066;SDS011;27734;47.028;28.820;2023-08-31T08:27:12;12.83;;;5.67;;
42066;SDS011;27734;47.028;28.820;2023-08-31T08:29:45;11.20;;;5.25;;
42066;SDS011;27734;47.028;28.820;2023-08-31T08:32:17;10.37;;;5.20;;
42066;SDS011;27734;47.028;28.820;2023-08-31T08:34:49;9.57;;;4.93;;
42066;SDS011;27734;47.028;28.820;2023-08-31T08:37:21;10.37;;;4.80;;
42066;SDS011;27734;47.028;28.820;2023-08-31T08:39:53;14.30;;;5.35;;
42066;SDS011;27734;47.028;28.820;2023-08-31T08:42:25;8.27;;;4.80;;
42066;SDS011;27734;47.028;28.820;2023-08-31T08:44:58;13.13;;;5.50;;
42066;SDS011;27734;47.028;28.820;2023-08-31T08:47:32;15.33;;;5.40;;
42066;SDS011;27734;47.028;28.820;2023-08-31T08:50:04;11.77;;;5.60;;
42066;SDS011;27734;47.028;28.820;2023-08-31T08:52:37;12.37;;;5.17;;
42066;SDS011;27734;47.028;28.820;2023-08-31T08:55:09;10.57;;;5.07;;
42066;SDS011;27734;47.028;28.820;2023-08-31T08:57:40;9.97;;;5.30;;
42066;SDS011;27734;47.028;28.820;2023-08-31T09:00:12;11.37;;;5.50;;
42066;SDS011;27734;47.028;28.820;2023-08-31T09:02:44;11.05;;;5.12;;
42066;SDS011;27734;47.028;28.820;2023-08-31T09:05:16;10.33;;;5.20;;
42066;SDS011;27734;47.028;28.820;2023-08-31T09:08:03;8.70;;;5.23;;
42066;SDS011;27734;47.028;28.820;2023-08-31T09:10:38;9.13;;;5.10;;
42066;SDS011;27734;47.028;28.820;2023-08-31T09:13:11;12.63;;;5.07;;
42066;SDS011;27734;47.028;28.820;2023-08-31T09:15:44;9.60;;;4.90;;
42066;SDS011;27734;47.028;28.820;2023-08-31T09:18:22;12.67;;;5.27;;
42066;SDS011;27734;47.028;28.820;2023-08-31T09:20:54;9.53;;;4.90;;
42066;SDS011;27734;47.028;28.820;2023-08-31T09:23:26;9.87;;;5.17;;
42066;SDS011;27734;47.028;28.820;2023-08-31T09:25:57;9.03;;;5.00;;
42066;SDS011;27734;47.028;28.820;2023-08-31T09:28:30;8.63;;;4.80;;
42066;SDS011;27734;47.028;28.820;2023-08-31T09:31:05;8.60;;;4.83;;
42066;SDS011;27734;47.028;28.820;2023-08-31T09:33:37;9.87;;;4.87;;
42066;SDS011;27734;47.028;28.820;2023-08-31T09:36:19;10.83;;;5.53;;
42066;SDS011;27734;47.028;28.820;2023-08-31T09:38:51;9.83;;;4.97;;
42066;SDS011;27734;47.028;28.820;2023-08-31T09:41:28;7.93;;;4.73;;
42066;SDS011;27734;47.028;28.820;2023-08-31T09:44:01;11.33;;;5.03;;
42066;SDS011;27734;47.028;28.820;2023-08-31T09:46:46;7.60;;;4.83;;
42066;SDS011;27734;47.028;28.820;2023-08-31T09:49:18;12.10;;;5.00;;
42066;SDS011;27734;47.028;28.820;2023-08-31T09:51:52;10.17;;;4.60;;
42066;SDS011;27734;47.028;28.820;2023-08-31T09:54:23;11.53;;;5.10;;
42066;SDS011;27734;47.028;28.820;2023-08-31T09:56:59;9.70;;;4.67;;
42066;SDS011;27734;47.028;28.820;2023-08-31T09:59:32;9.77;;;5.07;;
42066;SDS011;27734;47.028;28.820;2023-08-31T10:02:04;9.73;;;4.87;;
42066;SDS011;27734;47.028;28.820;2023-08-31T10:04:38;9.83;;;5.17;;
42066;SDS011;27734;47.028;28.820;2023-08-31T10:07:09;7.55;;;5.05;;
42066;SDS011;27734;47.028;28.820;2023-08-31T10:09:42;11.83;;;5.17;;
42066;SDS011;27734;47.028;28.820;2023-08-31T10:12:14;10.80;;;5.23;;
42066;SDS011;27734;47.028;28.820;2023-08-31T10:14:48;7.77;;;4.60;;
42066;SDS011;27734;47.028;28.820;2023-08-31T10:17:20;8.98;;;4.95;;
42066;SDS011;27734;47.028;28.820;2023-08-31T10:22:25;9.93;;;5.10;;
42066;SDS011;27734;47.028;28.820;2023-08-31T10:25:00;7.97;;;4.57;;
42066;SDS011;27734;47.028;28.820;2023-08-31T10:27:37;10.77;;;5.17;;
42066;SDS011;27734;47.028;28.820;2023-08-31T10:30:20;7.63;;;4.40;;
42066;SDS011;27734;47.028;28.820;2023-08-31T10:35:52;10.30;;;4.87;;
42066;SDS011;27734;47.028;28.820;2023-08-31T10:38:27;12.30;;;5.03;;
42066;SDS011;27734;47.028;28.820;2023-08-31T10:43:52;10.47;;;4.77;;
42066;SDS011;27734;47.028;28.820;2023-08-31T10:46:26;11.17;;;4.70;;
42066;SDS011;27734;47.028;28.820;2023-08-31T10:48:59;7.93;;;4.67;;
42066;SDS011;27734;47.028;28.820;2023-08-31T10:51:42;8.20;;;4.83;;
42066;SDS011;27734;47.028;28.820;2023-08-31T10:54:20;8.48;;;4.62;;
42066;SDS011;27734;47.028;28.820;2023-08-31T10:57:00;9.07;;;4.87;;
42066;SDS011;27734;47.028;28.820;2023-08-31T10:59:46;9.67;;;4.90;;
42066;SDS011;27734;47.028;28.820;2023-08-31T11:02:29;9.33;;;4.77;;
42066;SDS011;27734;47.028;28.820;2023-08-31T11:05:06;9.57;;;4.73;;
42066;SDS011;27734;47.028;28.820;2023-08-31T11:07:39;12.97;;;5.23;;
42066;SDS011;27734;47.028;28.820;2023-08-31T11:10:13;8.93;;;5.40;;
42066;SDS011;27734;47.028;28.820;2023-08-31T11:12:46;8.37;;;4.60;;
42066;SDS011;27734;47.028;28.820;2023-08-31T11:15:19;7.83;;;4.50;;
42066;SDS011;27734;47.028;28.820;2023-08-31T11:17:52;10.15;;;4.80;;
42066;SDS011;27734;47.028;28.820;2023-08-31T11:20:24;8.30;;;4.83;;
42066;SDS011;27734;47.028;28.820;2023-08-31T11:22:56;9.87;;;5.13;;
42066;SDS011;27734;47.028;28.820;2023-08-31T11:25:29;9.30;;;4.97;;
42066;SDS011;27734;47.028;28.820;2023-08-31T11:28:03;9.13;;;4.97;;
42066;SDS011;27734;47.028;28.820;2023-08-31T11:30:37;10.27;;;5.13;;
42066;SDS011;27734;47.028;28.820;2023-08-31T11:33:12;10.53;;;4.77;;
42066;SDS011;27734;47.028;28.820;2023-08-31T11:35:43;13.23;;;4.70;;
42066;SDS011;27734;47.028;28.820;2023-08-31T11:38:15;9.30;;;4.53;;
42066;SDS011;27734;47.028;28.820;2023-08-31T11:40:47;9.33;;;4.60;;
42066;SDS011;27734;47.028;28.820;2023-08-31T11:43:18;12.43;;;5.00;;
42066;SDS011;27734;47.028;28.820;2023-08-31T11:45:50;7.00;;;4.60;;
42066;SDS011;27734;47.028;28.820;2023-08-31T11:48:22;7.63;;;4.60;;
42066;SDS011;27734;47.028;28.820;2023-08-31T11:50:54;7.95;;;4.70;;
42066;SDS011;27734;47.028;28.820;2023-08-31T11:53:26;7.37;;;4.43;;
42066;SDS011;27734;47.028;28.820;2023-08-31T11:55:58;6.33;;;4.60;;
42066;SDS011;27734;47.028;28.820;2023-08-31T11:58:33;7.97;;;4.47;;
42066;SDS011;27734;47.028;28.820;2023-08-31T12:01:19;9.33;;;4.87;;
42066;SDS011;27734;47.028;28.820;2023-08-31T12:03:51;13.23;;;5.20;;
42066;SDS011;27734;47.028;28.820;2023-08-31T12:06:23;8.70;;;4.50;;
42066;SDS011;27734;47.028;28.820;2023-08-31T12:08:54;6.87;;;3.93;;
42066;SDS011;27734;47.028;28.820;2023-08-31T12:11:26;6.90;;;4.30;;
42066;SDS011;27734;47.028;28.820;2023-08-31T12:14:00;7.87;;;4.40;;
42066;SDS011;27734;47.028;28.820;2023-08-31T12:16:35;7.87;;;4.50;;
42066;SDS011;27734;47.028;28.820;2023-08-31T12:19:06;7.67;;;4.60;;
42066;SDS011;27734;47.028;28.820;2023-08-31T12:21:41;8.50;;;4.53;;
42066;SDS011;27734;47.028;28.820;2023-08-31T12:24:14;7.13;;;4.60;;
42066;SDS011;27734;47.028;28.820;2023-08-31T12:29:17;7.77;;;4.43;;
42066;SDS011;27734;47.028;28.820;2023-08-31T12:31:49;9.97;;;5.00;;
42066;SDS011;27734;47.028;28.820;2023-08-31T12:34:20;7.23;;;4.13;;
42066;SDS011;27734;47.028;28.820;2023-08-31T12:36:52;10.17;;;4.47;;
42066;SDS011;27734;47.028;28.820;2023-08-31T12:39:27;8.60;;;4.60;;
42066;SDS011;27734;47.028;28.820;2023-08-31T12:42:00;10.30;;;4.58;;
42066;SDS011;27734;47.028;28.820;2023-08-31T12:44:31;8.27;;;4.43;;
42066;SDS011;27734;47.028;28.820;2023-08-31T12:47:03;12.40;;;5.27;;
42066;SDS011;27734;47.028;28.820;2023-08-31T12:49:34;8.37;;;4.63;;
42066;SDS011;27734;47.028;28.820;2023-08-31T12:52:06;8.90;;;4.80;;
42066;SDS011;27734;47.028;28.820;2023-08-31T12:54:38;8.63;;;4.70;;
42066;SDS011;27734;47.028;28.820;2023-08-31T12:57:10;5.70;;;4.00;;
42066;SDS011;27734;47.028;28.820;2023-08-31T12:59:41;6.77;;;4.27;;
42066;SDS011;27734;47.028;28.820;2023-08-31T13:02:12;7.10;;;4.10;;
42066;SDS011;27734;47.028;28.820;2023-08-31T13:04:44;10.00;;;4.50;;
42066;SDS011;27734;47.028;28.820;2023-08-31T13:07:15;7.97;;;4.57;;
42066;SDS011;27734;47.028;28.820;2023-08-31T13:09:49;6.17;;;4.10;;
42066;SDS011;27734;47.028;28.820;2023-08-31T13:12:21;10.47;;;4.57;;
42066;SDS011;27734;47.028;28.820;2023-08-31T13:14:52;8.03;;;4.60;;
42066;SDS011;27734;47.028;28.820;2023-08-31T13:17:23;8.17;;;4.33;;
42066;SDS011;27734;47.028;28.820;2023-08-31T13:19:56;7.63;;;4.30;;
42066;SDS011;27734;47.028;28.820;2023-08-31T13:22:28;8.03;;;3.90;;
42066;SDS011;27734;47.028;28.820;2023-08-31T13:24:59;7.23;;;4.13;;
42066;SDS011;27734;47.028;28.820;2023-08-31T13:30:02;6.80;;;4.23;;
42066;SDS011;27734;47.028;28.820;2023-08-31T13:32:37;7.27;;;4.27;;
42066;SDS011;27734;47.028;28.820;2023-08-31T13:35:09;8.73;;;4.43;;
42066;SDS011;27734;47.028;28.820;2023-08-31T13:37:40;7.43;;;4.10;;
42066;SDS011;27734;47.028;28.820;2023-08-31T13:40:12;6.23;;;4.17;;
42066;SDS011;27734;47.028;28.820;2023-08-31T13:42:52;7.57;;;4.20;;
42066;SDS011;27734;47.028;28.820;2023-08-31T13:45:27;8.97;;;4.07;;
42066;SDS011;27734;47.028;28.820;2023-08-31T13:47:59;10.47;;;4.60;;
42066;SDS011;27734;47.028;28.820;2023-08-31T13:53:02;7.17;;;4.20;;
42066;SDS011;27734;47.028;28.820;2023-08-31T13:55:34;8.97;;;4.50;;
42066;SDS011;27734;47.028;28.820;2023-08-31T13:58:06;9.03;;;4.23;;
42066;SDS011;27734;47.028;28.820;2023-08-31T14:00:39;9.97;;;4.00;;
42066;SDS011;27734;47.028;28.820;2023-08-31T14:03:11;10.28;;;4.53;;
42066;SDS011;27734;47.028;28.820;2023-08-31T14:05:42;7.73;;;4.10;;
42066;SDS011;27734;47.028;28.820;2023-08-31T14:08:18;10.60;;;4.33;;
42066;SDS011;27734;47.028;28.820;2023-08-31T14:10:50;6.73;;;4.17;;
42066;SDS011;27734;47.028;28.820;2023-08-31T14:13:24;6.20;;;3.83;;
42066;SDS011;27734;47.028;28.820;2023-08-31T14:15:56;8.30;;;4.30;;
42066;SDS011;27734;47.028;28.820;2023-08-31T14:18:27;5.30;;;4.10;;
42066;SDS011;27734;47.028;28.820;2023-08-31T14:21:00;8.80;;;4.40;;
42066;SDS011;27734;47.028;28.820;2023-08-31T14:23:32;8.03;;;4.50;;
42066;SDS011;27734;47.028;28.820;2023-08-31T14:26:03;6.83;;;4.10;;
42066;SDS011;27734;47.028;28.820;2023-08-31T14:28:34;6.13;;;3.90;;
42066;SDS011;27734;47.028;28.820;2023-08-31T14:31:08;9.97;;;4.20;;
42066;SDS011;27734;47.028;28.820;2023-08-31T14:33:39;6.33;;;3.70;;
42066;SDS011;27734;47.028;28.820;2023-08-31T14:36:10;6.73;;;3.97;;
42066;SDS011;27734;47.028;28.820;2023-08-31T14:38:43;7.03;;;3.98;;
42066;SDS011;27734;47.028;28.820;2023-08-31T14:41:15;6.13;;;4.00;;
42066;SDS011;27734;47.028;28.820;2023-08-31T14:43:46;7.80;;;3.73;;
42066;SDS011;27734;47.028;28.820;2023-08-31T14:46:17;7.60;;;4.40;;
42066;SDS011;27734;47.028;28.820;2023-08-31T14:48:50;9.60;;;4.03;;
42066;SDS011;27734;47.028;28.820;2023-08-31T14:51:23;6.87;;;4.20;;
42066;SDS011;27734;47.028;28.820;2023-08-31T14:53:55;6.70;;;4.30;;
42066;SDS011;27734;47.028;28.820;2023-08-31T14:56:26;9.07;;;4.40;;
42066;SDS011;27734;47.028;28.820;2023-08-31T14:58:57;9.87;;;4.40;;
42066;SDS011;27734;47.028;28.820;2023-08-31T15:01:29;8.90;;;4.27;;
42066;SDS011;27734;47.028;28.820;2023-08-31T15:04:03;9.37;;;4.50;;
42066;SDS011;27734;47.028;28.820;2023-08-31T15:06:34;9.27;;;4.47;;
42066;SDS011;27734;47.028;28.820;2023-08-31T15:09:06;6.47;;;4.10;;
42066;SDS011;27734;47.028;28.820;2023-08-31T15:11:40;9.07;;;3.93;;
42066;SDS011;27734;47.028;28.820;2023-08-31T15:14:12;6.30;;;4.30;;